Carnival Glory — 3FPS9 — position and weather

sailwx.info

Track history (hours):
 
Tides and Currents Weather Stations Pressure Air Temp Water Temp Dewpoint Dewpoint Depression Visibility Wind Speed Wind Dir Waves Ship Positions

Carnival Glory

Operator: Carnival Cruise Lines

Last reported at 2018-Jun-18 00:00 UTC. Time now 2018-Jun-18 19:11 UTC.
Position N 21°12' W 084°24'.

Type: Passenger vessel. MMSI: 357659000.

Wind from 100 at 20 knots

Barometer 1015.0 mb
Air temperature 27.0 ° C
Visibility: greater than 10.8 NM
Dewpoint 24.1 ° C
Water temperature 29.0 ° C

Date/timePositionNaut miles runAvg speedWind from/ knotsBaromVisibWave heightAir tempDewpointWater temp
2018-Jun-18 00:00N 21°12' W 084°24'18213.0 100 / 201015.010.8 27.024.129.0
2018-Jun-17 10:00N 23°36' W 082°24'17117.1 100 / 201015.910.8 28.023.729.0
2018-Jun-17 00:02N 25°12' W 079°49'7180.6
2018-Jun-17 00:00N 25°06' W 079°48'7640.1 050 / 151016.710.8 28.023.729.0
2018-Jun-16 23:59N 25°13' W 079°49'815.9
2018-Jun-16 23:30N 25°20' W 079°46'815.6
2018-Jun-16 23:00N 25°28' W 079°46'815.3
2018-Jun-16 22:31N 25°36' W 079°46'815.2
2018-Jun-16 22:01N 25°41' W 079°52'815.6
2018-Jun-16 21:30N 25°45' W 079°60'612.0
2018-Jun-16 21:00N 25°46' W 080°06'4 8.8
2018-Jun-16 20:30N 25°47' W 080°11'1 1.7
2018-Jun-16 19:58N 25°47' W 080°10'0 0.0
2018-Jun-16 19:28N 25°47' W 080°10'0 0.0
2018-Jun-16 18:58N 25°47' W 080°10'0 0.0
2018-Jun-16 18:28N 25°47' W 080°10'0 0.0
2018-Jun-16 17:58N 25°47' W 080°10'0 0.0
2018-Jun-16 17:28N 25°47' W 080°10'0 0.0
2018-Jun-16 16:58N 25°47' W 080°10'0 0.0
2018-Jun-16 16:28N 25°47' W 080°10'0 0.0
2018-Jun-16 15:58N 25°47' W 080°10'0 0.0
2018-Jun-16 15:28N 25°47' W 080°10'0 0.0
2018-Jun-16 14:58N 25°47' W 080°10'0 0.0
2018-Jun-16 14:28N 25°47' W 080°10'0 0.0
2018-Jun-16 13:58N 25°47' W 080°10'0 0.0
2018-Jun-16 13:28N 25°47' W 080°10'0 0.0
2018-Jun-16 12:58N 25°47' W 080°10'0 0.0
2018-Jun-16 12:28N 25°47' W 080°10'0 0.0
2018-Jun-16 11:58N 25°47' W 080°10'0 0.0
2018-Jun-16 11:28N 25°47' W 080°10'0 0.0
2018-Jun-16 10:58N 25°47' W 080°10'0 0.0
2018-Jun-16 10:28N 25°47' W 080°10'0 0.0
2018-Jun-16 09:58N 25°47' W 080°10'0 0.0
2018-Jun-16 09:29N 25°47' W 080°10'1 2.4
2018-Jun-16 08:59N 25°46' W 080°09'511.4
2018-Jun-16 08:30N 25°46' W 080°03'713.3
2018-Jun-16 08:01N 25°43' W 079°56'816.2
2018-Jun-16 07:31N 25°39' W 079°48'1121.8
2018-Jun-16 07:01N 25°29' W 079°45'10520.9
2018-Jun-16 02:00N 23°48' W 079°12'5819.4 080 / 81016.910.8 26.023.130.0
2018-Jun-15 23:00N 22°54' W 078°48'26820.6 070 / 111016.010.8 28.023.730.0
2018-Jun-15 10:00N 20°54' W 074°30'22417.2 090 / 151016.310.8 27.024.129.0
2018-Jun-14 21:00N 19°48' W 070°42'63 5.8 090 / 251015.910.8 29.023.228.0
2018-Jun-14 10:00N 19°36' W 069°36'26020.0 130 / 201017.610.8 28.023.729.0
2018-Jun-13 21:00N 18°24' W 065°12'51 2.2 070 / 251017.710.8 28.023.729.0
2018-Jun-12 22:00N 18°24' W 066°06'29913.0 100 / 201016.010.8 27.024.129.0
2018-Jun-11 23:00N 21°18' W 070°24'172 8.2 110 / 251015.810.8 26.021.528.0
2018-Jun-11 02:00N 23°06' W 072°48'21815.6 090 / 221016.9 26.023.128.0
2018-Jun-10 12:00N 25°30' W 075°48'19216.0 150 / 151018.210.8 27.024.129.0
2018-Jun-10 00:01N 26°15' W 079°15'015.0
2018-Jun-10 00:00N 26°15' W 079°15'815.8
2018-Jun-09 23:30N 26°13' W 079°23'815.9
2018-Jun-09 23:00N 26°08' W 079°31'917.6
2018-Jun-09 22:30N 26°03' W 079°38'917.8
2018-Jun-09 22:00N 25°57' W 079°46'917.5
2018-Jun-09 21:31N 25°52' W 079°54'816.0
2018-Jun-09 21:00N 25°48' W 080°02'611.6
2018-Jun-09 20:31N 25°46' W 080°08'2 4.0
2018-Jun-09 20:00N 25°46' W 080°10'0 0.0
2018-Jun-09 19:30N 25°46' W 080°10'0 0.0
2018-Jun-09 19:00N 25°46' W 080°10'0 0.0
2018-Jun-09 18:30N 25°46' W 080°10'0 0.0
2018-Jun-09 18:00N 25°46' W 080°10'0 0.0
2018-Jun-09 17:24N 25°46' W 080°10'0 0.0
2018-Jun-09 17:00N 25°46' W 080°10'0 0.0
2018-Jun-09 16:30N 25°46' W 080°10'0 0.0
2018-Jun-09 15:57N 25°46' W 080°10'0 0.0
2018-Jun-09 15:21N 25°46' W 080°10'0 0.0
2018-Jun-09 14:24N 25°46' W 080°10'0 0.0
2018-Jun-09 13:54N 25°46' W 080°10'0 0.0
2018-Jun-09 13:30N 25°46' W 080°10'0 0.0
2018-Jun-09 12:57N 25°46' W 080°10'0 0.0
2018-Jun-09 12:27N 25°46' W 080°10'0 0.0
2018-Jun-09 12:00N 25°46' W 080°10'0 0.0
2018-Jun-09 11:27N 25°46' W 080°10'0 0.0
2018-Jun-09 10:54N 25°46' W 080°10'0 0.0
2018-Jun-09 10:27N 25°46' W 080°10'0 0.0
2018-Jun-09 10:00N 25°46' W 080°10'1 1.6
2018-Jun-09 09:30N 25°47' W 080°11'2 3.2
2018-Jun-09 09:00N 25°46' W 080°09'611.1
2018-Jun-09 08:30N 25°47' W 080°03'4 9.0
2018-Jun-09 08:00N 25°45' W 079°58'713.3
2018-Jun-09 07:30N 25°42' W 079°52'714.5
2018-Jun-09 07:00N 25°37' W 079°46'816.3
2018-Jun-09 06:30N 25°29' W 079°46'  
Track history (hours):
 
Tides and Currents Weather Stations Pressure Air Temp Water Temp Dewpoint Dewpoint Depression Visibility Wind Speed Wind Dir Waves Ship Positions

Carnival Glory

Operator: Carnival Cruise Lines

Last reported at 2018-Jun-18 00:00 UTC. Time now 2018-Jun-18 19:11 UTC.
Position N 21°12' W 084°24'.

Type: Passenger vessel. MMSI: 357659000.

Wind from 100 at 20 knots

Barometer 1015.0 mb
Air temperature 27.0 ° C
Visibility: greater than 10.8 NM
Dewpoint 24.1 ° C
Water temperature 29.0 ° C

Date/timePositionNaut miles runAvg speedWind from/ knotsBaromVisibWave heightAir tempDewpointWater temp
2018-Jun-18 00:00N 21°12' W 084°24'18213.0 100 / 201015.010.8 27.024.129.0
2018-Jun-17 10:00N 23°36' W 082°24'17117.1 100 / 201015.910.8 28.023.729.0
2018-Jun-17 00:02N 25°12' W 079°49'7180.6
2018-Jun-17 00:00N 25°06' W 079°48'7640.1 050 / 151016.710.8 28.023.729.0
2018-Jun-16 23:59N 25°13' W 079°49'815.9
2018-Jun-16 23:30N 25°20' W 079°46'815.6
2018-Jun-16 23:00N 25°28' W 079°46'815.3
2018-Jun-16 22:31N 25°36' W 079°46'815.2
2018-Jun-16 22:01N 25°41' W 079°52'815.6
2018-Jun-16 21:30N 25°45' W 079°60'612.0
2018-Jun-16 21:00N 25°46' W 080°06'4 8.8
2018-Jun-16 20:30N 25°47' W 080°11'1 1.7
2018-Jun-16 19:58N 25°47' W 080°10'0 0.0
2018-Jun-16 19:28N 25°47' W 080°10'0 0.0
2018-Jun-16 18:58N 25°47' W 080°10'0 0.0
2018-Jun-16 18:28N 25°47' W 080°10'0 0.0
2018-Jun-16 17:58N 25°47' W 080°10'0 0.0
2018-Jun-16 17:28N 25°47' W 080°10'0 0.0
2018-Jun-16 16:58N 25°47' W 080°10'0 0.0
2018-Jun-16 16:28N 25°47' W 080°10'0 0.0
2018-Jun-16 15:58N 25°47' W 080°10'0 0.0
2018-Jun-16 15:28N 25°47' W 080°10'0 0.0
2018-Jun-16 14:58N 25°47' W 080°10'0 0.0
2018-Jun-16 14:28N 25°47' W 080°10'0 0.0
2018-Jun-16 13:58N 25°47' W 080°10'0 0.0
2018-Jun-16 13:28N 25°47' W 080°10'0 0.0
2018-Jun-16 12:58N 25°47' W 080°10'0 0.0
2018-Jun-16 12:28N 25°47' W 080°10'0 0.0
2018-Jun-16 11:58N 25°47' W 080°10'0 0.0
2018-Jun-16 11:28N 25°47' W 080°10'0 0.0
2018-Jun-16 10:58N 25°47' W 080°10'0 0.0
2018-Jun-16 10:28N 25°47' W 080°10'0 0.0
2018-Jun-16 09:58N 25°47' W 080°10'0 0.0
2018-Jun-16 09:29N 25°47' W 080°10'1 2.4
2018-Jun-16 08:59N 25°46' W 080°09'511.4
2018-Jun-16 08:30N 25°46' W 080°03'713.3
2018-Jun-16 08:01N 25°43' W 079°56'816.2
2018-Jun-16 07:31N 25°39' W 079°48'1121.8
2018-Jun-16 07:01N 25°29' W 079°45'10520.9
2018-Jun-16 02:00N 23°48' W 079°12'5819.4 080 / 81016.910.8 26.023.130.0
2018-Jun-15 23:00N 22°54' W 078°48'26820.6 070 / 111016.010.8 28.023.730.0
2018-Jun-15 10:00N 20°54' W 074°30'22417.2 090 / 151016.310.8 27.024.129.0
2018-Jun-14 21:00N 19°48' W 070°42'63 5.8 090 / 251015.910.8 29.023.228.0
2018-Jun-14 10:00N 19°36' W 069°36'26020.0 130 / 201017.610.8 28.023.729.0
2018-Jun-13 21:00N 18°24' W 065°12'51 2.2 070 / 251017.710.8 28.023.729.0
2018-Jun-12 22:00N 18°24' W 066°06'29913.0 100 / 201016.010.8 27.024.129.0
2018-Jun-11 23:00N 21°18' W 070°24'172 8.2 110 / 251015.810.8 26.021.528.0
2018-Jun-11 02:00N 23°06' W 072°48'21815.6 090 / 221016.9 26.023.128.0
2018-Jun-10 12:00N 25°30' W 075°48'19216.0 150 / 151018.210.8 27.024.129.0
2018-Jun-10 00:01N 26°15' W 079°15'015.0
2018-Jun-10 00:00N 26°15' W 079°15'815.8
2018-Jun-09 23:30N 26°13' W 079°23'815.9
2018-Jun-09 23:00N 26°08' W 079°31'917.6
2018-Jun-09 22:30N 26°03' W 079°38'917.8
2018-Jun-09 22:00N 25°57' W 079°46'917.5
2018-Jun-09 21:31N 25°52' W 079°54'816.0
2018-Jun-09 21:00N 25°48' W 080°02'611.6
2018-Jun-09 20:31N 25°46' W 080°08'2 4.0
2018-Jun-09 20:00N 25°46' W 080°10'0 0.0
2018-Jun-09 19:30N 25°46' W 080°10'0 0.0
2018-Jun-09 19:00N 25°46' W 080°10'0 0.0
2018-Jun-09 18:30N 25°46' W 080°10'0 0.0
2018-Jun-09 18:00N 25°46' W 080°10'0 0.0
2018-Jun-09 17:24N 25°46' W 080°10'0 0.0
2018-Jun-09 17:00N 25°46' W 080°10'0 0.0
2018-Jun-09 16:30N 25°46' W 080°10'0 0.0
2018-Jun-09 15:57N 25°46' W 080°10'0 0.0
2018-Jun-09 15:21N 25°46' W 080°10'0 0.0
2018-Jun-09 14:24N 25°46' W 080°10'0 0.0
2018-Jun-09 13:54N 25°46' W 080°10'0 0.0
2018-Jun-09 13:30N 25°46' W 080°10'0 0.0
2018-Jun-09 12:57N 25°46' W 080°10'0 0.0
2018-Jun-09 12:27N 25°46' W 080°10'0 0.0
2018-Jun-09 12:00N 25°46' W 080°10'0 0.0
2018-Jun-09 11:27N 25°46' W 080°10'0 0.0
2018-Jun-09 10:54N 25°46' W 080°10'0 0.0
2018-Jun-09 10:27N 25°46' W 080°10'0 0.0
2018-Jun-09 10:00N 25°46' W 080°10'1 1.6
2018-Jun-09 09:30N 25°47' W 080°11'2 3.2
2018-Jun-09 09:00N 25°46' W 080°09'611.1
2018-Jun-09 08:30N 25°47' W 080°03'4 9.0
2018-Jun-09 08:00N 25°45' W 079°58'713.3
2018-Jun-09 07:30N 25°42' W 079°52'714.5
2018-Jun-09 07:00N 25°37' W 079°46'816.3
2018-Jun-09 06:30N 25°29' W 079°46'  

Dump ship's entire track history